Aviation Digital Data Service (ADDS)

Output produced by METARs form (0643 UTC 22 January 2021)
found at http://aviationweather.gov/metar/data/
 
METAR text: EYKA 220620Z 17007KT 9000 NSC 01/M01 Q1000 R08/290095
Conditions at: EYKA (KAUNAS , LT) observed 0620 UTC 22 January 2021
Temperature: 1.0°C (34°F)
Dewpoint: -1.0°C (30°F) [RH = 86%]
Pressure (altimeter): 29.53 inches Hg (1000.0 mb)
Winds: from the S (170 degrees) at 8 MPH (7 knots; 3.6 m/s)
Visibility: 6 miles ( 9 km)
Ceiling: at least 12,000 feet AGL
Clouds: sky clear below 12,000 feet AGL
Weather: no significant weather observed at this time

METAR text: EYKA 220550Z 17009KT CAVOK 01/M01 Q1000 R08/290095
Conditions at: EYKA (KAUNAS , LT) observed 0550 UTC 22 January 2021
Temperature: 1.0°C (34°F)
Dewpoint: -1.0°C (30°F) [RH = 86%]
Pressure (altimeter): 29.53 inches Hg (1000.0 mb)
Winds: from the S (170 degrees) at 10 MPH (9 knots; 4.6 m/s)
Visibility: 6 or more miles (10+ km)
Ceiling: ceiling and visibility are OK
Clouds: unknown
Weather: no significant weather observed at this time

METAR text: EYKA 220520Z 16008KT CAVOK 01/M01 Q1000 R08/290095
Conditions at: EYKA (KAUNAS , LT) observed 0520 UTC 22 January 2021
Temperature: 1.0°C (34°F)
Dewpoint: -1.0°C (30°F) [RH = 86%]
Pressure (altimeter): 29.53 inches Hg (1000.0 mb)
Winds: from the SSE (160 degrees) at 9 MPH (8 knots; 4.1 m/s)
Visibility: 6 or more miles (10+ km)
Ceiling: ceiling and visibility are OK
Clouds: unknown
Weather: no significant weather observed at this time

METAR text: EYKA 220450Z 17010KT CAVOK 02/M01 Q1000 R08/290095
Conditions at: EYKA (KAUNAS , LT) observed 0450 UTC 22 January 2021
Temperature: 2.0°C (36°F)
Dewpoint: -1.0°C (30°F) [RH = 80%]
Pressure (altimeter): 29.53 inches Hg (1000.0 mb)
Winds: from the S (170 degrees) at 12 MPH (10 knots; 5.1 m/s)
Visibility: 6 or more miles (10+ km)
Ceiling: ceiling and visibility are OK
Clouds: unknown
Weather: no significant weather observed at this time